createdAt,value
2022-11-13T00:02:03.059Z,8.50
2022-11-13T00:04:44.947Z,9.57
2022-11-13T00:07:27.123Z,8.70
2022-11-13T00:10:09.939Z,8.13
2022-11-13T00:12:53.750Z,8.75
2022-11-13T00:15:35.854Z,9.40
2022-11-13T00:18:19.090Z,8.48
2022-11-13T00:21:07.253Z,9.45
2022-11-13T00:23:49.621Z,8.27
2022-11-13T00:26:32.534Z,8.95
2022-11-13T00:29:14.264Z,9.00
2022-11-13T00:31:56.387Z,10.20
2022-11-13T00:34:48.021Z,9.00
2022-11-13T00:37:30.305Z,8.98
2022-11-13T00:40:12.994Z,9.65
2022-11-13T00:42:54.911Z,9.82
2022-11-13T00:45:37.062Z,10.07
2022-11-13T00:48:19.398Z,10.13
2022-11-13T00:51:03.231Z,10.38
2022-11-13T00:53:45.267Z,9.65
2022-11-13T00:56:27.671Z,10.75
2022-11-13T00:59:09.895Z,10.63
2022-11-13T01:01:51.619Z,10.00
2022-11-13T01:04:33.472Z,9.75
2022-11-13T01:07:16.988Z,10.60
2022-11-13T01:09:59.760Z,10.85
2022-11-13T01:12:41.469Z,10.27
2022-11-13T01:15:23.406Z,10.75
2022-11-13T01:18:05.308Z,11.60
2022-11-13T01:20:47.098Z,12.82
2022-11-13T01:23:30.171Z,11.73
2022-11-13T01:26:15.788Z,11.95
2022-11-13T01:28:59.548Z,11.90
2022-11-13T01:31:41.505Z,11.88
2022-11-13T01:34:23.559Z,12.90
2022-11-13T01:37:05.581Z,12.55
2022-11-13T01:39:48.900Z,11.85
2022-11-13T01:42:33.512Z,11.35
2022-11-13T01:46:03.343Z,11.32
2022-11-13T01:48:51.208Z,11.27
2022-11-13T01:51:38.507Z,11.57
2022-11-13T01:54:25.580Z,11.82
2022-11-13T01:57:09.045Z,11.13
2022-11-13T01:59:54.555Z,10.50
2022-11-13T02:02:36.946Z,11.88
2022-11-13T02:05:18.699Z,11.25
2022-11-13T02:08:01.315Z,10.13
2022-11-13T02:10:43.263Z,10.13
2022-11-13T02:13:27.115Z,10.30
2022-11-13T02:16:10.688Z,9.77
2022-11-13T02:18:53.595Z,10.25
2022-11-13T02:21:45.030Z,10.98
2022-11-13T02:24:32.622Z,10.95
2022-11-13T02:27:22.531Z,10.60
2022-11-13T02:30:16.666Z,10.57
2022-11-13T02:33:00.942Z,10.98
2022-11-13T02:35:42.582Z,10.68
2022-11-13T02:38:25.007Z,9.57
2022-11-13T02:41:08.564Z,10.45
2022-11-13T02:43:50.573Z,9.90
2022-11-13T02:46:32.880Z,9.68
2022-11-13T02:49:14.721Z,9.75
2022-11-13T02:51:56.851Z,9.10
2022-11-13T02:54:38.818Z,9.07
2022-11-13T02:57:21.907Z,8.85
2022-11-13T03:00:07.881Z,8.82
2022-11-13T03:02:52.353Z,9.23
2022-11-13T03:05:34.177Z,8.38
2022-11-13T03:08:16.160Z,9.27
2022-11-13T03:10:58.122Z,8.23
2022-11-13T03:13:41.500Z,8.50
2022-11-13T03:16:23.814Z,9.32
2022-11-13T03:19:05.776Z,7.97
2022-11-13T03:21:47.357Z,8.45
2022-11-13T03:24:29.627Z,9.10
2022-11-13T03:27:11.404Z,8.55
2022-11-13T03:29:54.594Z,8.43
2022-11-13T03:32:36.302Z,8.43
2022-11-13T03:35:18.231Z,8.15
2022-11-13T03:37:59.798Z,8.27
2022-11-13T03:40:41.711Z,8.93
2022-11-13T03:43:24.787Z,9.25
2022-11-13T03:46:07.819Z,8.82
2022-11-13T03:48:49.729Z,8.45
2022-11-13T03:51:31.682Z,8.60
2022-11-13T03:54:13.647Z,8.57
2022-11-13T03:56:55.857Z,8.43
2022-11-13T03:59:37.632Z,8.48
2022-11-13T04:02:21.010Z,8.60
2022-11-13T04:05:03.039Z,8.80
2022-11-13T04:07:45.187Z,8.38
2022-11-13T04:10:27.265Z,8.13
2022-11-13T04:13:09.537Z,8.88
2022-11-13T04:15:51.247Z,7.80
2022-11-13T04:18:34.370Z,8.38
2022-11-13T04:21:16.582Z,8.38
2022-11-13T04:23:58.610Z,7.82
2022-11-13T04:26:40.239Z,8.43
2022-11-13T04:29:22.451Z,8.93
2022-11-13T04:32:04.095Z,8.25
2022-11-13T04:34:47.315Z,8.68
2022-11-13T04:37:29.046Z,8.55
2022-11-13T04:40:12.763Z,8.93
2022-11-13T04:42:53.720Z,8.43
2022-11-13T04:45:36.220Z,8.45
2022-11-13T04:48:17.835Z,9.85
2022-11-13T04:51:02.385Z,8.30
2022-11-13T04:53:44.286Z,8.25
2022-11-13T04:56:26.378Z,8.00
2022-11-13T04:59:08.211Z,8.55
2022-11-13T05:01:49.969Z,8.40
2022-11-13T05:04:32.047Z,8.40
2022-11-13T05:07:15.438Z,8.40
2022-11-13T05:09:57.186Z,8.50
2022-11-13T05:12:38.979Z,8.75
2022-11-13T05:15:20.725Z,8.40
2022-11-13T05:18:02.880Z,8.13
2022-11-13T05:20:44.654Z,9.05
2022-11-13T05:23:28.008Z,7.88
2022-11-13T05:26:12.627Z,8.00
2022-11-13T05:28:54.701Z,7.85
2022-11-13T05:31:36.843Z,7.95
2022-11-13T05:34:20.019Z,8.68
2022-11-13T05:37:01.812Z,8.63
2022-11-13T05:39:45.368Z,8.82
2022-11-13T05:42:27.309Z,8.82
2022-11-13T05:45:10.884Z,8.75
2022-11-13T05:47:52.596Z,9.65
2022-11-13T05:50:34.850Z,8.73
2022-11-13T05:53:16.540Z,9.20
2022-11-13T05:56:03.141Z,8.68
2022-11-13T05:58:45.956Z,8.48
2022-11-13T06:01:30.478Z,8.60
2022-11-13T06:04:12.583Z,8.85
2022-11-13T06:06:54.557Z,8.05
2022-11-13T06:09:36.723Z,9.40
2022-11-13T06:12:20.273Z,9.30
2022-11-13T06:15:02.264Z,8.85
2022-11-13T06:17:47.231Z,8.57
2022-11-13T06:20:28.927Z,8.23
2022-11-13T06:23:11.111Z,8.33
2022-11-13T06:25:52.674Z,9.17
2022-11-13T06:28:36.467Z,8.43
2022-11-13T06:31:21.081Z,7.40
2022-11-13T06:34:03.991Z,9.13
2022-11-13T06:36:45.912Z,8.70
2022-11-13T06:39:27.803Z,8.23
2022-11-13T06:42:09.836Z,9.77
2022-11-13T06:44:53.130Z,9.70
2022-11-13T06:47:35.165Z,9.60
2022-11-13T06:50:17.079Z,10.70
2022-11-13T06:52:58.823Z,10.10
2022-11-13T06:55:45.365Z,9.23
2022-11-13T06:58:27.441Z,8.48
2022-11-13T07:01:14.322Z,8.88
2022-11-13T07:03:56.024Z,8.77
2022-11-13T07:06:40.390Z,8.10
2022-11-13T07:09:22.570Z,8.80
2022-11-13T07:12:04.616Z,9.27
2022-11-13T07:14:46.416Z,8.98
2022-11-13T07:17:31.231Z,8.70
2022-11-13T07:20:13.447Z,9.07
2022-11-13T07:22:57.438Z,9.30
2022-11-13T07:25:39.624Z,9.67
2022-11-13T07:28:21.611Z,9.03
2022-11-13T07:31:03.499Z,9.03
2022-11-13T07:33:49.724Z,9.13
2022-11-13T07:36:31.781Z,10.10
2022-11-13T07:39:13.818Z,9.40
2022-11-13T07:41:55.848Z,9.87
2022-11-13T07:44:54.072Z,9.30
2022-11-13T07:47:36.497Z,8.97
2022-11-13T07:50:19.862Z,8.55
2022-11-13T07:53:05.706Z,9.57
2022-11-13T07:55:48.203Z,8.32
2022-11-13T07:58:31.173Z,9.17
2022-11-13T08:01:13.449Z,9.03
2022-11-13T08:03:55.262Z,8.57
2022-11-13T08:06:40.207Z,8.63
2022-11-13T08:09:22.598Z,8.90
2022-11-13T08:12:04.465Z,8.95
2022-11-13T08:14:46.491Z,8.23
2022-11-13T08:17:28.533Z,8.93
2022-11-13T08:20:12.101Z,9.10
2022-11-13T08:22:58.783Z,7.70
2022-11-13T08:25:40.559Z,9.00
2022-11-13T08:28:22.405Z,7.97
2022-11-13T08:31:05.159Z,7.93
2022-11-13T08:33:47.169Z,8.40
2022-11-13T08:36:29.276Z,8.02
2022-11-13T08:39:12.495Z,8.13
2022-11-13T08:41:54.391Z,7.65
2022-11-13T08:44:36.535Z,7.85
2022-11-13T08:47:18.407Z,7.90
2022-11-13T08:50:00.361Z,7.75
2022-11-13T08:52:42.279Z,8.00
2022-11-13T08:55:26.008Z,7.95
2022-11-13T08:58:07.817Z,8.35
2022-11-13T09:00:49.864Z,8.10
2022-11-13T09:03:31.957Z,8.20
2022-11-13T09:06:14.024Z,7.72
2022-11-13T09:08:56.431Z,7.35
2022-11-13T09:11:39.708Z,6.80
2022-11-13T09:14:21.541Z,7.97
2022-11-13T09:17:03.613Z,6.70
2022-11-13T09:19:45.664Z,6.53
2022-11-13T09:22:27.660Z,7.00
2022-11-13T09:25:10.731Z,7.03
2022-11-13T09:27:59.597Z,7.00
2022-11-13T09:30:42.042Z,6.50
2022-11-13T09:33:24.115Z,7.47
2022-11-13T09:36:12.759Z,6.68
2022-11-13T09:38:58.390Z,8.13
2022-11-13T09:41:45.362Z,8.50
2022-11-13T09:44:36.008Z,6.68
2022-11-13T09:47:23.036Z,5.95
2022-11-13T09:50:12.176Z,5.55
2022-11-13T09:52:55.793Z,6.15
2022-11-13T09:55:47.648Z,5.35
2022-11-13T09:58:42.156Z,5.28
2022-11-13T10:01:35.046Z,5.35
2022-11-13T10:04:26.049Z,5.00
2022-11-13T10:07:26.195Z,4.68
2022-11-13T10:10:54.812Z,4.80
2022-11-13T10:13:45.223Z,4.13
2022-11-13T10:16:34.807Z,4.35
2022-11-13T10:19:25.839Z,4.55
2022-11-13T10:22:34.173Z,4.25
2022-11-13T10:25:20.212Z,4.35
2022-11-13T10:28:28.019Z,4.00
2022-11-13T10:31:11.938Z,4.00
2022-11-13T10:33:56.571Z,4.15
2022-11-13T10:36:48.791Z,3.72
2022-11-13T10:39:30.634Z,3.88
2022-11-13T10:42:23.646Z,4.00
2022-11-13T10:45:12.056Z,3.15
2022-11-13T10:48:04.357Z,3.60
2022-11-13T10:50:55.688Z,3.17
2022-11-13T10:53:42.261Z,3.42
2022-11-13T10:56:35.117Z,3.00
2022-11-13T10:59:20.344Z,3.17
2022-11-13T11:02:18.695Z,2.60
2022-11-13T11:05:07.657Z,2.65
2022-11-13T11:07:51.978Z,2.78
2022-11-13T11:10:57.359Z,2.38
2022-11-13T11:13:39.207Z,2.40
2022-11-13T11:16:24.800Z,3.00
2022-11-13T11:19:11.799Z,2.80
2022-11-13T11:22:03.424Z,3.03
2022-11-13T11:24:56.581Z,2.70
2022-11-13T11:27:44.571Z,2.50
2022-11-13T11:30:28.029Z,2.90
2022-11-13T11:33:18.624Z,2.60
2022-11-13T11:36:08.358Z,2.30
2022-11-13T11:38:57.076Z,2.20
2022-11-13T11:41:47.653Z,2.58
2022-11-13T11:44:37.102Z,2.20
2022-11-13T11:47:19.741Z,2.78
2022-11-13T11:50:02.780Z,2.92
2022-11-13T11:53:00.268Z,3.42
2022-11-13T11:56:09.001Z,3.90
2022-11-13T11:59:12.634Z,4.10
2022-11-13T12:02:29.855Z,3.78
2022-11-13T12:05:24.511Z,3.00
2022-11-13T12:08:31.386Z,2.75
2022-11-13T12:11:23.662Z,2.75
2022-11-13T12:14:15.873Z,3.45
2022-11-13T12:17:27.880Z,3.70
2022-11-13T12:20:23.588Z,3.08
2022-11-13T12:23:25.416Z,3.15
2022-11-13T12:26:19.429Z,3.08
2022-11-13T12:29:14.833Z,3.80
2022-11-13T12:32:08.763Z,3.40
2022-11-13T12:34:55.340Z,3.15
2022-11-13T12:37:46.661Z,3.30
2022-11-13T12:40:37.494Z,3.13
2022-11-13T12:43:50.897Z,3.15
2022-11-13T12:46:42.033Z,3.38
2022-11-13T12:49:32.165Z,2.65
2022-11-13T12:52:24.382Z,3.20
2022-11-13T12:55:11.928Z,3.35
2022-11-13T12:57:54.191Z,3.28
2022-11-13T13:00:37.641Z,2.90
2022-11-13T13:03:48.028Z,3.17
2022-11-13T13:06:52.994Z,3.05
2022-11-13T13:09:51.018Z,2.30
2022-11-13T13:12:47.767Z,2.80
2022-11-13T13:15:36.318Z,2.45
2022-11-13T13:18:29.655Z,2.60
2022-11-13T13:21:16.266Z,1.95
2022-11-13T13:24:09.942Z,2.92
2022-11-13T13:26:51.896Z,2.42
2022-11-13T13:29:35.365Z,2.40
2022-11-13T13:32:24.309Z,2.65
2022-11-13T13:35:16.012Z,2.45
2022-11-13T13:38:07.748Z,2.20
2022-11-13T13:41:10.861Z,2.80
2022-11-13T13:44:11.723Z,2.63
2022-11-13T13:46:53.651Z,2.90
2022-11-13T13:49:35.563Z,2.42
2022-11-13T13:52:17.780Z,3.22
2022-11-13T13:55:02.955Z,3.13
2022-11-13T13:57:46.253Z,3.30
2022-11-13T14:00:28.518Z,3.85
2022-11-13T14:03:21.010Z,3.63
2022-11-13T14:06:27.431Z,3.78
2022-11-13T14:09:11.505Z,3.63
2022-11-13T14:12:09.664Z,3.75
2022-11-13T14:14:52.152Z,3.70
2022-11-13T14:17:35.472Z,4.18
2022-11-13T14:20:18.508Z,3.97
2022-11-13T14:23:00.264Z,4.32
2022-11-13T14:25:42.966Z,4.53
2022-11-13T14:28:28.680Z,4.57
2022-11-13T14:31:13.844Z,4.65
2022-11-13T14:33:55.984Z,4.60
2022-11-13T14:36:39.569Z,4.90
2022-11-13T14:39:27.460Z,4.68
2022-11-13T14:42:18.835Z,4.15
2022-11-13T14:45:16.742Z,4.95
2022-11-13T14:48:01.058Z,4.50
2022-11-13T14:50:52.131Z,4.32
2022-11-13T14:53:37.520Z,5.05
2022-11-13T14:56:19.144Z,4.70
2022-11-13T14:59:09.864Z,5.05
2022-11-13T15:01:57.834Z,5.15
2022-11-13T15:04:40.765Z,5.03
2022-11-13T15:07:30.334Z,5.43
2022-11-13T15:10:15.714Z,5.15
2022-11-13T15:12:58.025Z,8.27
2022-11-13T15:15:40.328Z,6.50
2022-11-13T15:18:23.928Z,6.82
2022-11-13T15:21:06.022Z,6.28
2022-11-13T15:23:48.044Z,5.90
2022-11-13T15:26:30.070Z,6.13
2022-11-13T15:29:12.197Z,5.80
2022-11-13T15:31:54.550Z,6.60
2022-11-13T15:34:37.776Z,5.70
2022-11-13T15:37:19.703Z,5.90
2022-11-13T15:40:01.363Z,6.53
2022-11-13T15:42:43.991Z,6.53
2022-11-13T15:45:26.148Z,6.00
2022-11-13T15:48:10.870Z,6.38
2022-11-13T15:50:54.347Z,7.13
2022-11-13T15:53:36.101Z,7.07
2022-11-13T15:56:18.761Z,7.40
2022-11-13T15:59:00.739Z,6.95
2022-11-13T16:01:43.085Z,7.78
2022-11-13T16:04:30.184Z,7.75
2022-11-13T16:07:20.561Z,7.40
2022-11-13T16:10:02.652Z,7.20
2022-11-13T16:12:45.825Z,7.43
2022-11-13T16:15:27.654Z,7.50
2022-11-13T16:18:22.937Z,6.80
2022-11-13T16:21:04.922Z,7.13
2022-11-13T16:23:48.150Z,6.78
2022-11-13T16:26:30.338Z,6.78
2022-11-13T16:29:20.239Z,6.63
2022-11-13T16:32:02.191Z,8.10
2022-11-13T16:34:44.260Z,7.38
2022-11-13T16:37:26.426Z,7.68
2022-11-13T16:40:20.609Z,7.47
2022-11-13T16:43:02.373Z,8.00
2022-11-13T16:45:44.315Z,6.85
2022-11-13T16:48:26.278Z,7.40
2022-11-13T16:51:07.895Z,6.63
2022-11-13T16:53:49.863Z,7.18
2022-11-13T16:56:33.239Z,7.35
2022-11-13T16:59:15.357Z,7.20
2022-11-13T17:01:57.985Z,6.65
2022-11-13T17:04:39.850Z,7.13
2022-11-13T17:07:23.055Z,8.13
2022-11-13T17:10:33.663Z,7.00
2022-11-13T17:13:10.409Z,8.50
2022-11-13T17:15:52.048Z,8.73
2022-11-13T17:18:34.074Z,8.98
2022-11-13T17:21:16.264Z,7.72
2022-11-13T17:23:59.646Z,9.13
2022-11-13T17:26:41.347Z,9.45
2022-11-13T17:29:25.090Z,7.88
2022-11-13T17:32:07.416Z,8.20
2022-11-13T17:34:49.340Z,8.35
2022-11-13T17:37:31.369Z,9.35
2022-11-13T17:40:13.730Z,8.75
2022-11-13T17:42:55.653Z,9.80
2022-11-13T17:45:40.671Z,10.18
2022-11-13T17:48:22.641Z,11.10
2022-11-13T17:51:06.795Z,10.90
2022-11-13T17:53:48.780Z,15.52
2022-11-13T17:56:30.873Z,12.18
2022-11-13T17:59:12.937Z,13.18
2022-11-13T18:01:56.182Z,13.50
2022-11-13T18:04:38.438Z,13.00
2022-11-13T18:07:20.597Z,13.60
2022-11-13T18:10:02.639Z,15.45
2022-11-13T18:12:44.832Z,12.90
2022-11-13T18:15:26.898Z,14.15
2022-11-13T18:18:10.813Z,14.00
2022-11-13T18:20:52.530Z,14.05
2022-11-13T18:23:34.387Z,13.77
2022-11-13T18:26:19.801Z,14.65
2022-11-13T18:29:02.540Z,15.32
2022-11-13T18:31:44.474Z,16.23
2022-11-13T18:34:28.875Z,19.35
2022-11-13T18:37:10.883Z,16.80
2022-11-13T18:39:52.852Z,17.13
2022-11-13T18:42:34.479Z,17.90
2022-11-13T18:45:16.690Z,17.98
2022-11-13T18:47:58.374Z,17.08
2022-11-13T18:50:41.617Z,17.60
2022-11-13T18:53:23.513Z,17.27
2022-11-13T18:56:08.255Z,15.55
2022-11-13T18:58:52.173Z,15.77
2022-11-13T19:01:36.301Z,15.38
2022-11-13T19:04:23.242Z,16.00
2022-11-13T19:07:07.726Z,15.65
2022-11-13T19:09:50.920Z,15.10
2022-11-13T19:12:32.860Z,16.38
2022-11-13T19:15:14.856Z,15.55
2022-11-13T19:17:56.694Z,14.13
2022-11-13T19:20:39.989Z,15.52
2022-11-13T19:23:23.204Z,16.65
2022-11-13T19:26:05.829Z,17.08
2022-11-13T19:28:48.822Z,17.17
2022-11-13T19:31:31.311Z,17.63
2022-11-13T19:34:14.516Z,19.80
2022-11-13T19:36:56.458Z,19.67
2022-11-13T19:39:39.445Z,22.48
2022-11-13T19:42:21.264Z,20.45
2022-11-13T19:45:03.234Z,28.83
2022-11-13T19:47:45.212Z,27.20
2022-11-13T19:50:26.979Z,26.73
2022-11-13T19:53:08.902Z,24.38
2022-11-13T19:55:57.159Z,21.27
2022-11-13T19:58:39.515Z,19.52
2022-11-13T20:01:25.060Z,18.65
2022-11-13T20:04:07.541Z,20.10
2022-11-13T20:06:50.723Z,18.92
2022-11-13T20:09:32.545Z,19.13
2022-11-13T20:12:15.720Z,18.58
2022-11-13T20:14:57.854Z,17.50
2022-11-13T20:17:39.760Z,17.73
2022-11-13T20:20:21.675Z,17.77
2022-11-13T20:23:03.762Z,17.27
2022-11-13T20:25:53.645Z,15.60
2022-11-13T20:28:36.963Z,15.75
2022-11-13T20:31:22.573Z,15.48
2022-11-13T20:34:04.217Z,15.63
2022-11-13T20:36:46.386Z,15.15
2022-11-13T20:39:28.345Z,15.32
2022-11-13T20:42:10.456Z,15.70
2022-11-13T20:44:57.208Z,15.68
2022-11-13T20:47:42.100Z,15.95
2022-11-13T20:50:23.820Z,14.95
2022-11-13T20:53:06.269Z,16.30
2022-11-13T20:55:47.936Z,17.30
2022-11-13T20:58:30.366Z,15.32
2022-11-13T21:01:16.175Z,16.65
2022-11-13T21:03:59.563Z,15.55
2022-11-13T21:06:41.690Z,15.07
2022-11-13T21:09:24.075Z,15.88
2022-11-13T21:12:06.586Z,14.68
2022-11-13T21:14:51.108Z,14.65
2022-11-13T21:17:34.320Z,14.82
2022-11-13T21:20:20.320Z,14.40
2022-11-13T21:23:02.045Z,14.45
2022-11-13T21:25:44.189Z,13.85
2022-11-13T21:28:30.597Z,13.45
2022-11-13T21:31:26.495Z,13.07
2022-11-13T21:34:11.706Z,14.02
2022-11-13T21:36:54.174Z,13.05
2022-11-13T21:39:36.047Z,13.75
2022-11-13T21:42:18.037Z,12.90
2022-11-13T21:45:00.211Z,12.80
2022-11-13T21:47:43.334Z,12.95
2022-11-13T21:50:26.755Z,13.90
2022-11-13T21:53:08.455Z,13.55
2022-11-13T21:55:51.422Z,12.70
2022-11-13T21:58:35.636Z,13.90
2022-11-13T22:01:17.684Z,14.43
2022-11-13T22:03:59.400Z,13.90
2022-11-13T22:06:49.478Z,13.98
2022-11-13T22:09:31.554Z,14.00
2022-11-13T22:12:13.397Z,13.52
2022-11-13T22:14:55.552Z,13.80
2022-11-13T22:17:37.281Z,13.02
2022-11-13T22:20:19.068Z,13.80
2022-11-13T22:23:02.620Z,12.77
2022-11-13T22:25:44.235Z,13.98
2022-11-13T22:28:26.316Z,13.48
2022-11-13T22:31:09.537Z,15.15
2022-11-13T22:33:54.807Z,16.35
2022-11-13T22:36:39.050Z,16.92
2022-11-13T22:39:22.490Z,16.95
2022-11-13T22:42:04.468Z,21.13
2022-11-13T22:44:56.124Z,25.40
2022-11-13T22:47:38.564Z,28.90
2022-11-13T22:50:20.652Z,27.10
2022-11-13T22:53:02.550Z,25.80
2022-11-13T22:55:45.826Z,25.27
2022-11-13T22:58:29.349Z,24.38
2022-11-13T23:01:16.554Z,25.52
2022-11-13T23:04:01.600Z,24.33
2022-11-13T23:06:44.064Z,24.20
2022-11-13T23:09:27.152Z,21.43
2022-11-13T23:12:10.499Z,20.37
2022-11-13T23:14:52.375Z,18.77
2022-11-13T23:17:34.076Z,19.92
2022-11-13T23:20:16.022Z,19.30
2022-11-13T23:22:57.742Z,19.53
2022-11-13T23:25:39.983Z,18.53
2022-11-13T23:28:23.201Z,18.60
2022-11-13T23:31:05.952Z,19.20
2022-11-13T23:33:47.878Z,18.83
2022-11-13T23:36:30.892Z,18.87
2022-11-13T23:39:12.729Z,17.85
2022-11-13T23:41:54.654Z,19.07
2022-11-13T23:44:38.216Z,17.83
2022-11-13T23:47:19.953Z,16.70
2022-11-13T23:50:01.881Z,17.73
2022-11-13T23:52:43.859Z,16.27
2022-11-13T23:55:26.229Z,15.37
2022-11-13T23:58:14.810Z,13.40
